Time;durP1;ratioP1;P1;durP2;ratioP2;P2;SDS_P1;SDS_P2;PMS_P1;PMS_P2;Temp;Humidity;BMP_temperature;BMP_pressure;BME280_temperature;BME280_humidity;BME280_pressure;Samples;Min_cycle;Max_cycle;Signal;HPM_P1;HPM_P2
2022/09/08 00:00:31;;;;;;;;;;;20.00;97.20;;;;;;4592761;19;19927;-25
2022/09/08 00:02:08;;;;;;;;;;;20.00;97.20;;;;;;4592694;19;19928;-26
2022/09/08 00:03:39;;;;;;;;;;;20.00;97.20;;;;;;4591341;19;19914;-26
2022/09/08 00:05:11;;;;;;;;;;;20.00;97.20;;;;;;4592396;19;19915;-24
2022/09/08 00:06:44;;;;;;;;;;;19.90;97.20;;;;;;4591311;19;19997;-28
2022/09/08 00:08:20;;;;;;;;;;;20.00;97.20;;;;;;4592655;19;20326;-26
2022/09/08 00:09:51;;;;;;;;;;;20.00;97.30;;;;;;4591425;19;19915;-24
2022/09/08 00:11:23;;;;;;;;;;;20.00;97.20;;;;;;4591156;19;19931;-25
2022/09/08 00:12:54;;;;;;;;;;;20.00;97.20;;;;;;4591842;19;19958;-26
2022/09/08 00:14:25;;;;;;;;;;;20.00;97.20;;;;;;4592064;19;20345;-25
2022/09/08 00:15:56;;;;;;;;;;;20.00;97.40;;;;;;4590525;19;19925;-23
2022/09/08 00:17:27;;;;;;;;;;;20.00;97.10;;;;;;4591074;19;19973;-24
2022/09/08 00:18:58;;;;;;;;;;;20.00;97.00;;;;;;4590138;19;19943;-25
2022/09/08 00:20:29;;;;;;;;;;;20.00;97.00;;;;;;4592276;19;20308;-26
2022/09/08 00:22:00;;;;;;;;;;;20.00;97.00;;;;;;4592051;19;19922;-27
2022/09/08 00:23:31;;;;;;;;;;;20.00;97.00;;;;;;4592177;19;19914;-25
2022/09/08 00:25:02;;;;;;;;;;;20.00;97.10;;;;;;4592459;19;19918;-25
2022/09/08 00:26:33;;;;;;;;;;;20.00;97.10;;;;;;4592169;19;20234;-26
2022/09/08 00:28:04;;;;;;;;;;;20.00;97.10;;;;;;4591901;19;19918;-26
2022/09/08 00:29:35;;;;;;;;;;;20.00;96.90;;;;;;4591906;19;19915;-26
2022/09/08 00:31:06;;;;;;;;;;;20.00;96.70;;;;;;4592274;19;19919;-26
2022/09/08 00:32:37;;;;;;;;;;;19.90;96.60;;;;;;4591892;19;19929;-25
2022/09/08 00:34:09;;;;;;;;;;;20.00;96.60;;;;;;4591149;19;19922;-25
2022/09/08 00:35:43;;;;;;;;;;;20.00;96.40;;;;;;4590933;19;19915;-27
2022/09/08 00:37:15;;;;;;;;;;;20.00;96.20;;;;;;4591666;19;19919;-26
2022/09/08 00:38:51;;;;;;;;;;;20.00;95.70;;;;;;4591589;19;19925;-24
2022/09/08 00:40:23;;;;;;;;;;;20.00;95.40;;;;;;4590817;19;20309;-25
2022/09/08 00:41:57;;;;;;;;;;;20.00;95.20;;;;;;4591483;19;19922;-24
2022/09/08 00:43:35;;;;;;;;;;;20.00;95.10;;;;;;4592256;19;19982;-26
2022/09/08 00:45:06;;;;;;;;;;;20.00;94.90;;;;;;4591611;19;19919;-25
2022/09/08 00:46:37;;;;;;;;;;;20.00;94.80;;;;;;4591546;19;19915;-25
2022/09/08 00:48:15;;;;;;;;;;;20.00;94.80;;;;;;4590941;19;19987;-27
2022/09/08 00:49:47;;;;;;;;;;;20.00;94.70;;;;;;4590736;19;19982;-27
2022/09/08 00:51:18;;;;;;;;;;;20.00;94.80;;;;;;4591192;19;19978;-25
2022/09/08 00:52:50;;;;;;;;;;;20.00;94.80;;;;;;4590610;19;19919;-25
2022/09/08 00:54:22;;;;;;;;;;;20.00;94.70;;;;;;4591275;19;20271;-25
2022/09/08 00:55:54;;;;;;;;;;;20.00;94.80;;;;;;4590685;19;19976;-26
2022/09/08 00:57:25;;;;;;;;;;;20.00;94.60;;;;;;4590385;19;19974;-24
2022/09/08 00:58:56;;;;;;;;;;;20.00;94.50;;;;;;4590828;19;20377;-24
2022/09/08 01:00:28;;;;;;;;;;;20.00;94.50;;;;;;4591590;19;19930;-26
2022/09/08 01:01:59;;;;;;;;;;;20.00;94.70;;;;;;4591220;19;19926;-25
2022/09/08 01:03:31;;;;;;;;;;;20.00;94.80;;;;;;4591383;19;19921;-25
2022/09/08 01:05:04;;;;;;;;;;;20.00;94.60;;;;;;4590336;19;19918;-25
2022/09/08 01:14:10;;;;;;;;;;;20.00;93.90;;;;;;4590746;19;20262;-24
2022/09/08 01:15:45;;;;;;;;;;;20.00;93.80;;;;;;4588927;19;19991;-24
2022/09/08 01:17:18;;;;;;;;;;;20.00;93.90;;;;;;4592457;19;19925;-27
2022/09/08 01:18:50;;;;;;;;;;;20.00;94.00;;;;;;4590889;19;20317;-27
2022/09/08 01:20:23;;;;;;;;;;;20.00;94.00;;;;;;4590931;19;19948;-25
2022/09/08 01:21:59;;;;;;;;;;;20.00;93.90;;;;;;4589706;19;19926;-26
2022/09/08 01:23:34;;;;;;;;;;;20.00;94.00;;;;;;4591215;19;19918;-25
2022/09/08 01:25:26;;;;;;;;;;;20.00;93.90;;;;;;4591049;19;19915;-26
2022/09/08 01:27:24;;;;;;;;;;;20.00;94.10;;;;;;4590867;19;19927;-25
2022/09/08 01:28:57;;;;;;;;;;;20.00;94.50;;;;;;4590196;19;19915;-24
2022/09/08 01:30:29;;;;;;;;;;;20.00;94.30;;;;;;4589597;19;19914;-24
2022/09/08 01:32:01;;;;;;;;;;;20.00;94.40;;;;;;4590114;19;20376;-25
2022/09/08 01:33:32;;;;;;;;;;;20.00;94.50;;;;;;4591266;19;19919;-27
2022/09/08 01:35:03;;;;;;;;;;;20.00;94.60;;;;;;4589411;19;19922;-25
2022/09/08 01:36:34;;;;;;;;;;;20.00;94.70;;;;;;4590595;19;20387;-25
2022/09/08 01:38:05;;;;;;;;;;;20.00;94.80;;;;;;4590739;19;19953;-26
2022/09/08 01:39:36;;;;;;;;;;;20.00;94.70;;;;;;4589472;19;19930;-26
2022/09/08 01:41:07;;;;;;;;;;;20.00;94.50;;;;;;4590062;19;19919;-28
2022/09/08 01:42:39;;;;;;;;;;;20.00;94.20;;;;;;4590259;19;19919;-24
2022/09/08 01:44:11;;;;;;;;;;;20.00;94.10;;;;;;4591149;19;20332;-26
2022/09/08 01:45:42;;;;;;;;;;;20.00;94.40;;;;;;4590445;19;19933;-26
2022/09/08 01:47:13;;;;;;;;;;;20.00;94.30;;;;;;4589142;19;19943;-25
2022/09/08 01:48:44;;;;;;;;;;;20.00;94.10;;;;;;4590267;19;20256;-25
2022/09/08 01:50:15;;;;;;;;;;;20.00;94.10;;;;;;4591176;19;19948;-25
2022/09/08 01:51:46;;;;;;;;;;;20.00;94.10;;;;;;4590312;19;19919;-25
2022/09/08 01:53:17;;;;;;;;;;;20.00;94.20;;;;;;4590608;19;19919;-26
2022/09/08 01:54:48;;;;;;;;;;;20.00;94.10;;;;;;4589663;19;19934;-25
2022/09/08 01:56:20;;;;;;;;;;;20.00;94.30;;;;;;4589147;19;20490;-25
2022/09/08 01:57:51;;;;;;;;;;;20.00;94.30;;;;;;4590041;19;19926;-25
2022/09/08 01:59:27;;;;;;;;;;;20.00;94.10;;;;;;4590370;19;19918;-24
2022/09/08 02:01:04;;;;;;;;;;;20.00;93.90;;;;;;4588154;19;19919;-24
2022/09/08 02:02:36;;;;;;;;;;;20.00;93.90;;;;;;4589201;19;19934;-26
2022/09/08 02:04:07;;;;;;;;;;;20.00;93.80;;;;;;4590024;19;20328;-25
2022/09/08 02:05:41;;;;;;;;;;;20.00;93.70;;;;;;4590049;19;19919;-25
2022/09/08 02:07:12;;;;;;;;;;;20.00;93.60;;;;;;4590293;19;19931;-25
2022/09/08 02:08:43;;;;;;;;;;;20.00;93.60;;;;;;4589975;19;19940;-26
2022/09/08 02:10:14;;;;;;;;;;;20.00;93.70;;;;;;4590200;19;19919;-25
2022/09/08 02:11:48;;;;;;;;;;;20.00;93.40;;;;;;4590170;19;19925;-25
2022/09/08 02:13:19;;;;;;;;;;;20.00;93.50;;;;;;4590631;19;19923;-27
2022/09/08 02:14:51;;;;;;;;;;;20.00;93.50;;;;;;4587682;19;19927;-26
2022/09/08 02:16:23;;;;;;;;;;;20.00;93.40;;;;;;4589624;19;19919;-26
2022/09/08 02:17:54;;;;;;;;;;;20.00;93.40;;;;;;4590016;19;19931;-27
2022/09/08 02:19:25;;;;;;;;;;;20.00;93.50;;;;;;4589841;19;19922;-25
2022/09/08 02:21:14;;;;;;;;;;;20.00;93.80;;;;;;4589948;19;19918;-25
2022/09/08 02:22:45;;;;;;;;;;;20.00;93.40;;;;;;4589219;19;19918;-25
2022/09/08 02:24:16;;;;;;;;;;;20.00;93.20;;;;;;4588914;19;20395;-28
2022/09/08 02:25:47;;;;;;;;;;;20.00;93.00;;;;;;4589934;19;19921;-27
2022/09/08 02:27:18;;;;;;;;;;;20.00;93.10;;;;;;4589817;19;19925;-26
2022/09/08 02:28:52;;;;;;;;;;;20.00;93.20;;;;;;4589837;19;19933;-28
2022/09/08 02:30:22;;;;;;;;;;;20.00;93.20;;;;;;4589841;19;19915;-26
2022/09/08 02:31:54;;;;;;;;;;;20.00;93.10;;;;;;4589935;19;19952;-25
2022/09/08 02:33:26;;;;;;;;;;;20.00;93.10;;;;;;4589599;19;19915;-27
2022/09/08 02:34:57;;;;;;;;;;;20.00;93.30;;;;;;4589843;19;20248;-25
2022/09/08 02:36:28;;;;;;;;;;;20.00;92.90;;;;;;4590808;19;19935;-25
2022/09/08 02:37:59;;;;;;;;;;;20.00;92.90;;;;;;4589634;19;19915;-25
2022/09/08 02:39:30;;;;;;;;;;;20.00;92.90;;;;;;4589700;19;20337;-25
2022/09/08 02:41:02;;;;;;;;;;;20.00;92.90;;;;;;4589496;19;20329;-25
2022/09/08 02:42:33;;;;;;;;;;;20.00;93.00;;;;;;4593673;19;19910;-25
2022/09/08 02:44:04;;;;;;;;;;;20.00;93.20;;;;;;4593786;19;19915;-26
2022/09/08 02:45:41;;;;;;;;;;;19.90;93.20;;;;;;4593084;19;19986;-25
2022/09/08 02:47:12;;;;;;;;;;;20.00;93.30;;;;;;4593754;19;19927;-25
2022/09/08 02:48:43;;;;;;;;;;;20.00;93.10;;;;;;4593618;19;19925;-25
2022/09/08 02:50:15;;;;;;;;;;;20.00;93.10;;;;;;4592995;19;20015;-23
2022/09/08 02:51:47;;;;;;;;;;;20.00;93.00;;;;;;4593843;19;20274;-25
2022/09/08 02:53:18;;;;;;;;;;;20.00;93.00;;;;;;4594181;19;19918;-27
2022/09/08 02:54:49;;;;;;;;;;;20.00;93.10;;;;;;4594176;19;19919;-26
2022/09/08 02:56:20;;;;;;;;;;;20.00;92.90;;;;;;4593918;19;19921;-25
2022/09/08 02:57:51;;;;;;;;;;;20.00;93.10;;;;;;4593756;19;20344;-25
2022/09/08 02:59:22;;;;;;;;;;;20.00;93.10;;;;;;4594105;19;19915;-26
2022/09/08 03:00:53;;;;;;;;;;;20.00;92.90;;;;;;4594289;19;20229;-26
2022/09/08 03:02:24;;;;;;;;;;;20.00;92.80;;;;;;4593376;19;19915;-26
2022/09/08 03:03:55;;;;;;;;;;;20.00;92.80;;;;;;4593618;19;19914;-24
2022/09/08 03:05:27;;;;;;;;;;;19.90;92.70;;;;;;4594563;19;19966;-25
2022/09/08 03:06:58;;;;;;;;;;;20.00;92.70;;;;;;4593858;19;19994;-26
2022/09/08 03:08:30;;;;;;;;;;;20.00;92.80;;;;;;4593912;19;19919;-25
2022/09/08 03:10:02;;;;;;;;;;;20.00;92.80;;;;;;4593669;19;19930;-27
2022/09/08 03:11:33;;;;;;;;;;;20.00;92.90;;;;;;4593075;19;19919;-25
2022/09/08 03:13:04;;;;;;;;;;;20.00;92.90;;;;;;4593247;19;19947;-27
2022/09/08 03:14:36;;;;;;;;;;;20.00;92.70;;;;;;4592285;19;19956;-26
2022/09/08 03:16:07;;;;;;;;;;;20.00;92.60;;;;;;4593724;19;19986;-25
2022/09/08 03:17:38;;;;;;;;;;;19.90;92.50;;;;;;4594082;19;20313;-25
2022/09/08 03:19:09;;;;;;;;;;;19.90;92.60;;;;;;4593404;19;19939;-25
2022/09/08 03:20:41;;;;;;;;;;;19.90;92.50;;;;;;4593551;19;19978;-25
2022/09/08 03:22:13;;;;;;;;;;;20.00;92.60;;;;;;4593685;19;19914;-27
2022/09/08 03:23:44;;;;;;;;;;;20.00;92.60;;;;;;4593480;19;19910;-24
2022/09/08 03:25:15;;;;;;;;;;;20.00;92.70;;;;;;4593929;19;19919;-24
2022/09/08 03:26:46;;;;;;;;;;;20.00;92.70;;;;;;4593573;19;20329;-27
2022/09/08 03:28:21;;;;;;;;;;;20.00;92.70;;;;;;4593642;19;19911;-25
2022/09/08 03:29:53;;;;;;;;;;;20.00;92.90;;;;;;4593340;19;20312;-25
2022/09/08 03:31:24;;;;;;;;;;;20.00;92.90;;;;;;4593240;19;19951;-25
2022/09/08 03:32:55;;;;;;;;;;;20.00;93.00;;;;;;4593385;19;19941;-26
2022/09/08 03:34:26;;;;;;;;;;;20.00;93.00;;;;;;4593298;19;19918;-24
2022/09/08 03:36:01;;;;;;;;;;;20.00;93.00;;;;;;4591909;19;20319;-25
2022/09/08 03:37:32;;;;;;;;;;;20.00;93.10;;;;;;4595375;19;19918;-27
2022/09/08 03:39:03;;;;;;;;;;;19.90;93.00;;;;;;4593013;19;19915;-24
2022/09/08 03:40:39;;;;;;;;;;;20.00;92.80;;;;;;4593640;19;19919;-27
2022/09/08 03:42:11;;;;;;;;;;;20.00;92.90;;;;;;4592794;19;20303;-26
2022/09/08 03:43:43;;;;;;;;;;;19.90;92.60;;;;;;4592054;19;19922;-26
2022/09/08 03:45:15;;;;;;;;;;;20.00;92.60;;;;;;4592608;19;19919;-28
2022/09/08 03:46:46;;;;;;;;;;;20.00;92.50;;;;;;4593001;19;19918;-26
2022/09/08 03:48:17;;;;;;;;;;;20.00;92.40;;;;;;4593060;19;19933;-25
2022/09/08 03:49:48;;;;;;;;;;;20.00;92.40;;;;;;4593033;19;19932;-25
2022/09/08 03:51:25;;;;;;;;;;;20.00;92.40;;;;;;4593103;19;20346;-27
2022/09/08 03:52:56;;;;;;;;;;;19.90;92.40;;;;;;4590405;19;19918;-25
2022/09/08 03:56:18;;;;;;;;;;;20.00;92.40;;;;;;4592858;19;19911;-24
2022/09/08 03:57:51;;;;;;;;;;;19.90;92.40;;;;;;4592523;19;19944;-24
2022/09/08 03:59:29;;;;;;;;;;;19.90;92.40;;;;;;4592969;19;20261;-27
2022/09/08 04:01:13;;;;;;;;;;;19.90;92.40;;;;;;4591587;19;19971;-26
2022/09/08 04:02:45;;;;;;;;;;;19.90;92.40;;;;;;4591611;19;19919;-25
2022/09/08 04:04:16;;;;;;;;;;;20.00;92.30;;;;;;4591663;19;19914;-25
2022/09/08 04:05:47;;;;;;;;;;;19.90;92.20;;;;;;4592663;19;19915;-25
2022/09/08 04:07:18;;;;;;;;;;;19.90;92.20;;;;;;4592365;19;19923;-26
2022/09/08 04:08:49;;;;;;;;;;;19.90;92.20;;;;;;4594488;19;20294;-27
2022/09/08 04:10:20;;;;;;;;;;;20.00;92.20;;;;;;4592575;19;19930;-25
2022/09/08 04:11:52;;;;;;;;;;;20.00;92.30;;;;;;4593029;19;19922;-28
2022/09/08 04:13:23;;;;;;;;;;;20.00;92.30;;;;;;4592444;19;19926;-25
2022/09/08 04:14:53;;;;;;;;;;;20.00;92.40;;;;;;4590862;19;19922;-25
2022/09/08 04:16:26;;;;;;;;;;;19.90;92.40;;;;;;4592543;19;19915;-25
2022/09/08 04:18:02;;;;;;;;;;;19.90;92.30;;;;;;4591490;19;19929;-24
2022/09/08 04:19:34;;;;;;;;;;;20.00;92.30;;;;;;4592021;19;19929;-26
2022/09/08 04:21:05;;;;;;;;;;;20.00;92.30;;;;;;4592084;19;19928;-26
2022/09/08 04:22:36;;;;;;;;;;;20.00;92.40;;;;;;4590832;19;20368;-26
2022/09/08 04:24:07;;;;;;;;;;;20.00;92.30;;;;;;4591682;19;19934;-25
2022/09/08 04:25:38;;;;;;;;;;;20.00;92.40;;;;;;4592217;19;19915;-25
2022/09/08 04:27:09;;;;;;;;;;;19.90;92.40;;;;;;4592200;19;20341;-25
2022/09/08 04:28:41;;;;;;;;;;;19.90;92.60;;;;;;4592345;19;19921;-23
2022/09/08 04:30:12;;;;;;;;;;;19.90;92.30;;;;;;4591877;19;19922;-27
2022/09/08 04:31:44;;;;;;;;;;;19.90;92.30;;;;;;4591874;19;19932;-27
2022/09/08 04:33:15;;;;;;;;;;;19.90;92.50;;;;;;4592161;19;20361;-25
2022/09/08 04:34:53;;;;;;;;;;;19.90;92.40;;;;;;4592334;19;19925;-23
2022/09/08 04:36:27;;;;;;;;;;;19.90;92.50;;;;;;4591734;19;19919;-25
2022/09/08 04:37:58;;;;;;;;;;;19.90;92.40;;;;;;4591873;19;19926;-26
2022/09/08 04:39:31;;;;;;;;;;;19.90;92.30;;;;;;4591949;19;19915;-25
2022/09/08 04:41:05;;;;;;;;;;;19.90;92.30;;;;;;4591926;19;20371;-25
2022/09/08 04:42:39;;;;;;;;;;;19.80;92.30;;;;;;4591183;19;19930;-26
2022/09/08 04:44:11;;;;;;;;;;;19.90;92.20;;;;;;4591892;19;19947;-24
2022/09/08 04:45:42;;;;;;;;;;;19.90;92.30;;;;;;4591321;19;19953;-24
2022/09/08 04:47:14;;;;;;;;;;;19.80;92.20;;;;;;4591401;19;19922;-26
2022/09/08 04:48:51;;;;;;;;;;;19.90;92.30;;;;;;4589923;19;19923;-26
2022/09/08 04:50:28;;;;;;;;;;;19.90;92.30;;;;;;4588460;19;19947;-25
2022/09/08 04:52:04;;;;;;;;;;;19.80;92.30;;;;;;4591346;19;19919;-23
2022/09/08 04:53:37;;;;;;;;;;;19.80;92.10;;;;;;4589743;19;19915;-24
2022/09/08 04:55:10;;;;;;;;;;;19.80;92.20;;;;;;4590686;19;19918;-25
2022/09/08 04:56:41;;;;;;;;;;;19.80;92.10;;;;;;4589453;19;19925;-24
2022/09/08 04:58:13;;;;;;;;;;;19.80;92.10;;;;;;4590808;19;19923;-25
2022/09/08 04:59:46;;;;;;;;;;;19.80;92.20;;;;;;4591219;19;20255;-25
2022/09/08 05:01:19;;;;;;;;;;;19.80;92.30;;;;;;4590402;19;19934;-25
2022/09/08 05:02:52;;;;;;;;;;;19.80;92.20;;;;;;4588253;19;20679;-25
2022/09/08 05:04:24;;;;;;;;;;;19.80;92.10;;;;;;4588665;19;19911;-24
2022/09/08 05:05:56;;;;;;;;;;;19.80;92.20;;;;;;4590211;19;19915;-26
2022/09/08 05:07:29;;;;;;;;;;;19.90;92.20;;;;;;4592498;19;19915;-26
2022/09/08 05:09:03;;;;;;;;;;;19.90;92.20;;;;;;4590250;19;19954;-25
2022/09/08 05:10:47;;;;;;;;;;;19.90;92.20;;;;;;4591002;19;19918;-25
2022/09/08 05:12:27;;;;;;;;;;;19.90;92.30;;;;;;4590613;19;19918;-24
2022/09/08 05:16:53;;;;;;;;;;;19.90;92.50;;;;;;4587118;19;20342;-25
2022/09/08 05:18:34;;;;;;;;;;;19.90;92.50;;;;;;4588782;19;19915;-26
2022/09/08 05:20:19;;;;;;;;;;;19.90;92.40;;;;;;4588164;19;19914;-27
2022/09/08 05:21:50;;;;;;;;;;;19.90;92.20;;;;;;4587906;19;19926;-24
2022/09/08 05:23:21;;;;;;;;;;;19.90;92.20;;;;;;4586645;19;19926;-24
2022/09/08 05:24:53;;;;;;;;;;;19.90;92.30;;;;;;4587681;19;20257;-25
2022/09/08 05:26:26;;;;;;;;;;;19.90;92.20;;;;;;4586491;19;19947;-27
2022/09/08 05:27:57;;;;;;;;;;;20.00;92.20;;;;;;4586738;19;19919;-25
2022/09/08 05:29:28;;;;;;;;;;;20.00;92.30;;;;;;4589538;19;20231;-27
2022/09/08 05:30:59;;;;;;;;;;;20.00;92.10;;;;;;4589556;19;19919;-25
2022/09/08 05:32:31;;;;;;;;;;;20.00;92.20;;;;;;4588489;19;20277;-25
2022/09/08 05:34:02;;;;;;;;;;;20.10;92.10;;;;;;4588110;19;19970;-25
2022/09/08 05:35:35;;;;;;;;;;;20.10;92.10;;;;;;4588402;19;19914;-25
2022/09/08 05:37:06;;;;;;;;;;;20.10;92.10;;;;;;4587364;19;20014;-25
2022/09/08 05:38:37;;;;;;;;;;;20.10;92.10;;;;;;4587180;19;19918;-25
2022/09/08 05:40:08;;;;;;;;;;;20.10;92.10;;;;;;4586812;19;20503;-24
2022/09/08 05:41:43;;;;;;;;;;;20.10;92.30;;;;;;4585128;19;21748;-25
2022/09/08 05:43:14;;;;;;;;;;;20.10;92.20;;;;;;4585774;19;20241;-25
2022/09/08 05:44:46;;;;;;;;;;;20.10;92.10;;;;;;4589423;19;20372;-25
2022/09/08 05:46:17;;;;;;;;;;;20.10;92.10;;;;;;4588719;19;19914;-24
2022/09/08 05:47:48;;;;;;;;;;;20.10;92.20;;;;;;4589160;19;19931;-24
2022/09/08 05:49:19;;;;;;;;;;;20.00;92.30;;;;;;4587834;19;19915;-24
2022/09/08 05:50:51;;;;;;;;;;;20.00;92.50;;;;;;4587739;19;19919;-23
2022/09/08 05:52:21;;;;;;;;;;;20.00;92.60;;;;;;4587318;19;20015;-25
2022/09/08 05:53:52;;;;;;;;;;;19.90;92.50;;;;;;4587095;19;19980;-25
2022/09/08 05:55:23;;;;;;;;;;;19.90;92.40;;;;;;4586187;19;20356;-25
2022/09/08 05:56:56;;;;;;;;;;;19.90;92.60;;;;;;4586281;19;19982;-25
2022/09/08 05:58:28;;;;;;;;;;;19.90;92.70;;;;;;4589341;19;19954;-25
2022/09/08 06:00:02;;;;;;;;;;;19.90;92.60;;;;;;4587610;19;19930;-24
2022/09/08 06:01:36;;;;;;;;;;;19.90;92.70;;;;;;4587434;19;19914;-24
2022/09/08 06:03:09;;;;;;;;;;;19.90;93.00;;;;;;4586521;19;20338;-27
2022/09/08 06:04:43;;;;;;;;;;;20.00;92.80;;;;;;4586990;19;19915;-25
2022/09/08 06:06:22;;;;;;;;;;;20.00;92.80;;;;;;4586384;19;20283;-26
2022/09/08 06:08:21;;;;;;;;;;;20.00;92.70;;;;;;4586909;19;19927;-23
2022/09/08 06:10:08;;;;;;;;;;;20.10;93.00;;;;;;4586872;19;19923;-27
2022/09/08 06:11:52;;;;;;;;;;;20.10;92.70;;;;;;4587054;19;19915;-24
2022/09/08 06:13:23;;;;;;;;;;;20.10;92.50;;;;;;4587127;19;19915;-24
2022/09/08 06:14:55;;;;;;;;;;;20.20;92.50;;;;;;4585609;19;19922;-24
2022/09/08 06:16:30;;;;;;;;;;;20.30;92.60;;;;;;4584725;19;19923;-25
2022/09/08 06:18:08;;;;;;;;;;;20.30;92.60;;;;;;4586159;19;19927;-24
2022/09/08 06:19:43;;;;;;;;;;;20.30;92.70;;;;;;4585875;19;20252;-25
2022/09/08 06:21:16;;;;;;;;;;;20.50;92.70;;;;;;4587372;19;19926;-24
2022/09/08 06:22:47;;;;;;;;;;;20.60;92.60;;;;;;4586176;19;19918;-25
2022/09/08 06:24:18;;;;;;;;;;;20.70;92.50;;;;;;4587372;19;19919;-23
2022/09/08 06:25:49;;;;;;;;;;;20.70;92.70;;;;;;4587287;19;20073;-25
2022/09/08 06:27:26;;;;;;;;;;;20.60;93.00;;;;;;4587778;19;20004;-24
2022/09/08 06:29:10;;;;;;;;;;;20.60;93.10;;;;;;4587413;19;19923;-24
2022/09/08 06:30:42;;;;;;;;;;;20.50;92.90;;;;;;4587471;19;19918;-23
2022/09/08 06:32:30;;;;;;;;;;;;;;;;;;;;;
2022/09/08 06:34:16;;;;;;;;;;;20.50;92.90;;;;;;4587285;19;19919;-25
2022/09/08 06:35:50;;;;;;;;;;;20.50;92.80;;;;;;4587546;19;19944;-26
2022/09/08 06:37:33;;;;;;;;;;;20.50;92.80;;;;;;4587947;19;20267;-26
2022/09/08 06:39:06;;;;;;;;;;;20.50;92.80;;;;;;4587087;19;19923;-27
2022/09/08 06:40:48;;;;;;;;;;;20.50;92.70;;;;;;4587330;19;20276;-25
2022/09/08 06:42:19;;;;;;;;;;;20.60;92.70;;;;;;4587305;19;19932;-24
2022/09/08 06:44:01;;;;;;;;;;;20.50;92.70;;;;;;4587393;19;20304;-25
2022/09/08 06:45:40;;;;;;;;;;;20.60;92.70;;;;;;4587234;19;19932;-25
2022/09/08 06:47:21;;;;;;;;;;;20.60;92.80;;;;;;4587317;19;19915;-25
2022/09/08 06:48:55;;;;;;;;;;;20.60;92.70;;;;;;4587290;19;19925;-24
2022/09/08 06:50:26;;;;;;;;;;;20.60;92.70;;;;;;4587806;19;20312;-25
2022/09/08 06:52:03;;;;;;;;;;;20.60;92.80;;;;;;4587175;19;19944;-25
2022/09/08 06:53:35;;;;;;;;;;;20.60;92.80;;;;;;4587254;19;19914;-24
2022/09/08 06:55:09;;;;;;;;;;;20.60;92.90;;;;;;4586943;19;19915;-24
2022/09/08 06:56:48;;;;;;;;;;;20.60;92.80;;;;;;4587773;19;20386;-26
2022/09/08 06:58:46;;;;;;;;;;;20.60;92.60;;;;;;4587074;19;19919;-27
2022/09/08 07:00:24;;;;;;;;;;;20.50;92.60;;;;;;4586577;19;19926;-24
2022/09/08 07:01:58;;;;;;;;;;;20.50;92.60;;;;;;4586686;19;19953;-25
2022/09/08 07:03:33;;;;;;;;;;;20.50;92.50;;;;;;4585896;19;19936;-24
2022/09/08 07:05:16;;;;;;;;;;;20.50;92.60;;;;;;4587105;19;19947;-26
2022/09/08 07:06:49;;;;;;;;;;;20.50;92.60;;;;;;4586980;19;20338;-25
2022/09/08 07:08:35;;;;;;;;;;;20.50;92.70;;;;;;4587008;19;20272;-24
2022/09/08 07:10:11;;;;;;;;;;;20.60;92.80;;;;;;4586914;19;19919;-28
2022/09/08 07:11:48;;;;;;;;;;;20.60;92.90;;;;;;4586702;19;20261;-25
2022/09/08 07:13:20;;;;;;;;;;;20.50;92.90;;;;;;4587514;19;19944;-25
2022/09/08 07:15:10;;;;;;;;;;;20.60;93.00;;;;;;4585461;19;19923;-25
2022/09/08 07:16:43;;;;;;;;;;;20.60;92.80;;;;;;4589031;19;19923;-26
2022/09/08 07:18:21;;;;;;;;;;;20.60;92.80;;;;;;4589108;19;19923;-25
2022/09/08 07:19:53;;;;;;;;;;;20.60;92.80;;;;;;4587777;19;19915;-25
2022/09/08 07:21:27;;;;;;;;;;;20.60;92.90;;;;;;4588311;19;19996;-26
2022/09/08 07:23:03;;;;;;;;;;;20.60;92.80;;;;;;4586401;19;19942;-28
2022/09/08 07:24:35;;;;;;;;;;;20.60;92.70;;;;;;4588549;19;19919;-26
2022/09/08 07:26:11;;;;;;;;;;;20.60;92.70;;;;;;4587547;19;19927;-27
2022/09/08 07:27:43;;;;;;;;;;;20.60;92.70;;;;;;4589880;19;19929;-26
2022/09/08 07:29:33;;;;;;;;;;;20.60;92.80;;;;;;4592385;19;19926;-25
2022/09/08 07:31:04;;;;;;;;;;;18.60;93.50;;;;;;4592118;19;20435;-25
2022/09/08 07:32:36;;;;;;;;;;;17.80;94.60;;;;;;4591938;19;19942;-25
2022/09/08 07:34:09;;;;;;;;;;;17.60;94.90;;;;;;4592810;19;19917;-24
2022/09/08 07:36:07;;;;;;;;;;;17.50;95.30;;;;;;4591876;19;19922;-24
2022/09/08 07:37:47;;;;;;;;;;;17.60;94.90;;;;;;4593167;19;19986;-24
2022/09/08 07:39:24;;;;;;;;;;;17.60;95.10;;;;;;4590587;19;20381;-24
2022/09/08 07:40:56;;;;;;;;;;;17.70;95.20;;;;;;4590692;19;20382;-24
2022/09/08 07:42:28;;;;;;;;;;;17.70;95.00;;;;;;4592795;19;20226;-25
2022/09/08 07:43:59;;;;;;;;;;;17.70;95.50;;;;;;4590187;19;20323;-24
2022/09/08 07:45:45;;;;;;;;;;;17.70;95.20;;;;;;4590664;19;19923;-24
2022/09/08 07:47:27;;;;;;;;;;;17.70;95.20;;;;;;4589851;19;19922;-25
2022/09/08 07:49:16;;;;;;;;;;;17.80;95.00;;;;;;4591104;19;20350;-27
2022/09/08 07:50:53;;;;;;;;;;;17.80;94.90;;;;;;4590761;19;19922;-25
2022/09/08 07:52:31;;;;;;;;;;;17.80;94.90;;;;;;4589943;19;20090;-25
2022/09/08 07:54:04;;;;;;;;;;;17.80;94.80;;;;;;4591462;19;19922;-24
2022/09/08 07:55:39;;;;;;;;;;;17.80;94.40;;;;;;4591401;19;19919;-24
2022/09/08 07:57:30;;;;;;;;;;;17.80;94.60;;;;;;4591759;19;19919;-25
2022/09/08 07:59:11;;;;;;;;;;;17.90;94.80;;;;;;4592050;19;19919;-24
2022/09/08 08:00:45;;;;;;;;;;;17.90;94.90;;;;;;4591287;19;19919;-24
2022/09/08 08:02:16;;;;;;;;;;;18.00;94.80;;;;;;4591134;19;19980;-25
2022/09/08 08:03:53;;;;;;;;;;;18.00;94.70;;;;;;4589026;19;19931;-26
2022/09/08 08:05:25;;;;;;;;;;;18.00;94.40;;;;;;4590757;19;20250;-24
2022/09/08 08:06:57;;;;;;;;;;;18.00;94.00;;;;;;4590091;19;19921;-23
2022/09/08 08:08:48;;;;;;;;;;;18.00;95.10;;;;;;4589904;19;19940;-24
2022/09/08 08:10:45;;;;;;;;;;;18.10;94.80;;;;;;4589933;19;20460;-25
2022/09/08 08:12:29;;;;;;;;;;;18.10;94.10;;;;;;4590684;19;20608;-24
2022/09/08 08:14:20;;;;;;;;;;;18.10;94.10;;;;;;4590506;19;19911;-25
2022/09/08 08:15:58;;;;;;;;;;;18.10;94.10;;;;;;4589651;19;19929;-24
2022/09/08 08:17:48;;;;;;;;;;;18.20;94.20;;;;;;4590486;19;19922;-25
2022/09/08 08:19:25;;;;;;;;;;;18.20;94.40;;;;;;4590696;19;20268;-24
2022/09/08 08:20:59;;;;;;;;;;;18.20;94.60;;;;;;4590388;19;20321;-25
2022/09/08 08:22:45;;;;;;;;;;;18.20;94.60;;;;;;4590138;19;19922;-24
2022/09/08 08:24:31;;;;;;;;;;;18.20;95.50;;;;;;4590335;19;19922;-25
2022/09/08 08:26:05;;;;;;;;;;;18.30;95.30;;;;;;4591169;19;19923;-25
2022/09/08 08:27:38;;;;;;;;;;;18.30;94.70;;;;;;4589971;19;20606;-25
2022/09/08 08:29:24;;;;;;;;;;;18.30;94.50;;;;;;4588323;19;19915;-27
2022/09/08 08:31:14;;;;;;;;;;;18.30;94.50;;;;;;4588353;19;19915;-25
2022/09/08 08:32:50;;;;;;;;;;;18.30;94.60;;;;;;4587987;19;19922;-25
2022/09/08 08:34:25;;;;;;;;;;;18.30;94.60;;;;;;4588603;19;19948;-25
2022/09/08 08:36:01;;;;;;;;;;;18.40;94.30;;;;;;4587827;19;19927;-25
2022/09/08 08:37:33;;;;;;;;;;;18.40;94.10;;;;;;4590210;19;19923;-25
2022/09/08 08:39:11;;;;;;;;;;;18.40;93.70;;;;;;4588561;19;19928;-25
2022/09/08 08:40:48;;;;;;;;;;;18.40;94.70;;;;;;4590667;19;19919;-25
2022/09/08 08:42:29;;;;;;;;;;;18.50;93.90;;;;;;4590079;19;19919;-27
2022/09/08 08:44:08;;;;;;;;;;;18.50;94.50;;;;;;4590114;19;20005;-27
2022/09/08 08:46:08;;;;;;;;;;;18.40;93.80;;;;;;4589421;19;19947;-25
2022/09/08 08:47:43;;;;;;;;;;;18.40;93.80;;;;;;4590341;19;19954;-25
2022/09/08 08:49:19;;;;;;;;;;;18.40;93.70;;;;;;4590690;19;19919;-26
2022/09/08 08:51:02;;;;;;;;;;;18.50;93.90;;;;;;4589718;19;19914;-25
2022/09/08 08:52:52;;;;;;;;;;;18.50;94.70;;;;;;4590039;19;20400;-25
2022/09/08 08:54:35;;;;;;;;;;;18.50;94.40;;;;;;4590217;19;19949;-25
2022/09/08 08:56:24;;;;;;;;;;;18.50;93.60;;;;;;4589613;19;19915;-25
2022/09/08 08:58:01;;;;;;;;;;;18.50;94.70;;;;;;4590325;19;19982;-24
2022/09/08 08:59:36;;;;;;;;;;;18.60;94.30;;;;;;4590526;19;19926;-24
2022/09/08 09:01:10;;;;;;;;;;;18.60;93.90;;;;;;4589846;19;19914;-25
2022/09/08 09:02:56;;;;;;;;;;;18.60;93.90;;;;;;4589157;19;19925;-27
2022/09/08 09:04:53;;;;;;;;;;;18.70;93.60;;;;;;4589665;19;19923;-24
2022/09/08 09:06:31;;;;;;;;;;;18.70;94.00;;;;;;4590209;19;19915;-25
2022/09/08 09:08:20;;;;;;;;;;;18.70;94.00;;;;;;4589063;19;19964;-24
2022/09/08 09:09:54;;;;;;;;;;;18.70;94.20;;;;;;4590669;19;20012;-25
2022/09/08 09:11:43;;;;;;;;;;;18.70;93.80;;;;;;4589259;19;19923;-25
2022/09/08 09:13:26;;;;;;;;;;;18.70;93.10;;;;;;4590074;19;20004;-25
2022/09/08 09:15:02;;;;;;;;;;;18.70;93.00;;;;;;4588272;19;20810;-25
2022/09/08 09:16:42;;;;;;;;;;;18.80;92.60;;;;;;4589554;19;20297;-25
2022/09/08 09:18:16;;;;;;;;;;;18.80;92.50;;;;;;4589956;19;19944;-27
2022/09/08 09:19:50;;;;;;;;;;;18.80;92.70;;;;;;4589501;19;20316;-26
2022/09/08 09:21:26;;;;;;;;;;;18.80;92.50;;;;;;4589269;19;20310;-28
2022/09/08 09:23:05;;;;;;;;;;;18.80;93.00;;;;;;4588568;19;19918;-25
2022/09/08 09:24:55;;;;;;;;;;;18.80;93.30;;;;;;4589246;19;19958;-25